Terminal Aerodrome Forecast
Issued by NWS

Home | Current Version | Previous Version | Text Only | Print | Product List | Glossary On
Versions: 1 2 3 4 5 6 7 8 9 10 11 12 13 14 15 16 17 18 19
000
FTUS41 KPBZ 281700 RRA
TAFDUJ
TAF
KDUJ 281747Z 2818/0118 VRB03KT P6SM BKN120
     FM010500 11006KT P6SM OVC060
     FM010900 13006KT 3SM -SN OVC015
     FM011100 16005KT 2SM -SN OVC007
     FM011300 16006KT 1SM -SN OVC005=

USA.gov is the U.S. government's official web portal to all federal, state and local government web resources and services.